createdAt,value
2023-03-31T00:01:51.071Z,98283.09
2023-03-31T00:04:25.136Z,98284.19
2023-03-31T00:06:55.270Z,98279.66
2023-03-31T00:09:24.582Z,98294.88
2023-03-31T00:11:54.513Z,98289.69
2023-03-31T00:14:23.799Z,98289.69
2023-03-31T00:16:53.273Z,98283.00
2023-03-31T00:19:24.740Z,98286.16
2023-03-31T00:21:55.635Z,98292.72
2023-03-31T00:24:25.394Z,98295.59
2023-03-31T00:26:54.531Z,98301.41
2023-03-31T00:29:23.895Z,98303.25
2023-03-31T00:31:53.405Z,98308.66
2023-03-31T00:34:23.599Z,98303.69
2023-03-31T00:36:57.410Z,98295.69
2023-03-31T00:39:26.837Z,98296.97
2023-03-31T00:41:56.392Z,98305.56
2023-03-31T00:44:26.709Z,98318.25
2023-03-31T00:47:19.117Z,98322.41
2023-03-31T00:49:51.728Z,98328.00
2023-03-31T00:52:32.220Z,98331.34
2023-03-31T00:55:10.136Z,98332.81
2023-03-31T00:57:41.653Z,98337.44
2023-03-31T01:00:17.579Z,98349.63
2023-03-31T01:02:57.176Z,98348.94
2023-03-31T01:05:35.740Z,98345.03
2023-03-31T01:08:07.479Z,98345.41
2023-03-31T01:10:42.932Z,98346.97
2023-03-31T01:13:16.464Z,98344.97
2023-03-31T01:15:46.417Z,98351.94
2023-03-31T01:18:22.136Z,98350.81
2023-03-31T01:21:09.960Z,98359.41
2023-03-31T01:24:03.764Z,98360.41
2023-03-31T01:26:44.276Z,98361.22
2023-03-31T01:29:37.686Z,98361.53
2023-03-31T01:32:41.258Z,98362.47
2023-03-31T01:35:42.781Z,98358.78
2023-03-31T01:39:00.468Z,98367.53
2023-03-31T01:41:37.193Z,98363.97
2023-03-31T01:44:18.623Z,98376.25
2023-03-31T01:47:06.279Z,98375.81
2023-03-31T01:49:48.832Z,98381.09
2023-03-31T01:52:45.235Z,98388.09
2023-03-31T01:55:34.693Z,98395.38
2023-03-31T01:58:22.826Z,98396.03
2023-03-31T02:01:20.878Z,98396.94
2023-03-31T02:04:01.817Z,98403.69
2023-03-31T02:06:38.113Z,98396.56
2023-03-31T02:09:20.054Z,98401.56
2023-03-31T02:11:51.485Z,98403.19
2023-03-31T02:14:24.858Z,98404.91
2023-03-31T02:16:59.705Z,98409.81
2023-03-31T02:19:35.145Z,98421.91
2023-03-31T02:22:07.780Z,98425.63
2023-03-31T02:24:39.989Z,98429.97
2023-03-31T02:27:28.671Z,98435.16
2023-03-31T02:29:58.969Z,98438.94
2023-03-31T02:32:34.130Z,98433.28
2023-03-31T02:35:04.250Z,98434.88
2023-03-31T02:37:34.154Z,98444.22
2023-03-31T02:40:11.509Z,98440.38
2023-03-31T02:42:43.508Z,98452.28
2023-03-31T02:45:47.925Z,98456.34
2023-03-31T02:48:28.864Z,98464.59
2023-03-31T02:51:13.157Z,98454.91
2023-03-31T02:54:22.610Z,98467.22
2023-03-31T02:57:19.742Z,98469.69
2023-03-31T03:00:31.012Z,98480.38
2023-03-31T03:03:41.622Z,98477.31
2023-03-31T03:06:38.682Z,98480.78
2023-03-31T03:10:03.222Z,98485.59
2023-03-31T03:12:39.400Z,98487.97
2023-03-31T03:15:20.063Z,98495.00
2023-03-31T03:17:51.424Z,98502.84
2023-03-31T03:20:22.951Z,98506.78
2023-03-31T03:22:52.214Z,98511.63
2023-03-31T03:25:22.089Z,98509.66
2023-03-31T03:27:54.262Z,98513.69
2023-03-31T03:30:23.680Z,98515.25
2023-03-31T03:32:53.630Z,98524.22
2023-03-31T03:35:22.839Z,98515.31
2023-03-31T03:37:52.215Z,98521.25
2023-03-31T03:40:21.490Z,98520.69
2023-03-31T03:42:50.821Z,98524.19
2023-03-31T03:45:20.262Z,98532.44
2023-03-31T03:47:49.906Z,98528.16
2023-03-31T03:50:19.483Z,98530.69
2023-03-31T03:52:48.934Z,98540.19
2023-03-31T03:55:19.076Z,98541.00
2023-03-31T03:57:49.038Z,98540.28
2023-03-31T04:00:19.181Z,98541.72
2023-03-31T04:02:48.705Z,98537.78
2023-03-31T04:05:18.191Z,98539.81
2023-03-31T04:07:47.901Z,98541.63
2023-03-31T04:10:17.520Z,98543.03
2023-03-31T04:12:46.903Z,98542.84
2023-03-31T04:15:16.164Z,98550.09
2023-03-31T04:17:52.167Z,98550.84
2023-03-31T04:20:22.111Z,98547.19
2023-03-31T04:22:51.682Z,98555.28
2023-03-31T04:25:21.161Z,98548.91
2023-03-31T04:27:59.549Z,98554.59
2023-03-31T04:30:32.125Z,98543.84
2023-03-31T04:33:07.711Z,98554.13
2023-03-31T04:35:53.694Z,98555.09
2023-03-31T04:38:24.993Z,98561.31
2023-03-31T04:40:55.315Z,98555.34
2023-03-31T04:43:24.754Z,98557.75
2023-03-31T04:45:54.208Z,98556.53
2023-03-31T04:48:23.580Z,98558.72
2023-03-31T04:50:53.087Z,98558.16
2023-03-31T04:53:22.539Z,98557.31
2023-03-31T04:55:52.648Z,98561.19
2023-03-31T04:58:24.489Z,98563.28
2023-03-31T05:00:54.835Z,98562.50
2023-03-31T05:03:24.885Z,98567.66
2023-03-31T05:05:54.045Z,98566.28
2023-03-31T05:08:23.958Z,98570.38
2023-03-31T05:10:53.410Z,98568.69
2023-03-31T05:13:22.773Z,98561.16
2023-03-31T05:15:53.057Z,98564.38
2023-03-31T05:18:22.453Z,98570.91
2023-03-31T05:20:51.769Z,98568.25
2023-03-31T05:23:21.098Z,98568.53
2023-03-31T05:25:50.460Z,98560.19
2023-03-31T05:28:22.848Z,98565.84
2023-03-31T05:30:52.315Z,98561.81
2023-03-31T05:33:21.489Z,98563.41
2023-03-31T05:35:50.832Z,98563.13
2023-03-31T05:38:20.184Z,98563.13
2023-03-31T05:40:49.944Z,98568.78
2023-03-31T05:43:19.614Z,98558.50
2023-03-31T05:45:48.717Z,98556.81
2023-03-31T05:48:18.046Z,98545.56
2023-03-31T05:50:47.532Z,98547.91
2023-03-31T05:53:17.519Z,98549.50
2023-03-31T05:55:49.661Z,98549.72
2023-03-31T05:58:19.034Z,98555.25
2023-03-31T06:00:48.372Z,98548.63
2023-03-31T06:03:17.623Z,98542.69
2023-03-31T06:05:50.653Z,98542.66
2023-03-31T06:08:20.166Z,98536.13
2023-03-31T06:10:50.668Z,98537.16
2023-03-31T06:13:21.326Z,98535.94
2023-03-31T06:16:02.060Z,98522.63
2023-03-31T06:18:34.003Z,98534.25
2023-03-31T06:21:04.647Z,98522.78
2023-03-31T06:23:34.327Z,98519.84
2023-03-31T06:26:10.259Z,98518.50
2023-03-31T06:28:39.442Z,98524.63
2023-03-31T06:31:13.787Z,98520.09
2023-03-31T06:33:45.049Z,98513.38
2023-03-31T06:36:16.954Z,98517.19
2023-03-31T06:38:47.160Z,98506.56
2023-03-31T06:41:18.544Z,98510.59
2023-03-31T06:43:48.026Z,98510.06
2023-03-31T06:46:18.188Z,98504.94
2023-03-31T06:48:47.560Z,98499.84
2023-03-31T06:51:18.100Z,98496.38
2023-03-31T06:53:47.316Z,98503.66
2023-03-31T06:56:16.598Z,98491.97
2023-03-31T06:58:46.142Z,98491.94
2023-03-31T07:01:15.397Z,98492.38
2023-03-31T07:03:44.723Z,98486.38
2023-03-31T07:06:15.122Z,98478.06
2023-03-31T07:08:44.209Z,98481.78
2023-03-31T07:11:13.840Z,98479.16
2023-03-31T07:13:43.288Z,98478.19
2023-03-31T07:16:15.219Z,98471.16
2023-03-31T07:18:45.164Z,98462.47
2023-03-31T07:21:14.438Z,98466.13
2023-03-31T07:23:43.821Z,98472.53
2023-03-31T07:26:13.259Z,98473.38
2023-03-31T07:28:42.679Z,98463.13
2023-03-31T07:31:16.730Z,98453.22
2023-03-31T07:33:46.658Z,98456.94
2023-03-31T07:36:16.215Z,98447.28
2023-03-31T07:38:49.856Z,98444.84
2023-03-31T07:41:22.050Z,98442.38
2023-03-31T07:43:52.641Z,98434.34
2023-03-31T07:46:28.819Z,98430.41
2023-03-31T07:48:59.909Z,98426.09
2023-03-31T07:51:29.700Z,98430.06
2023-03-31T07:54:01.985Z,98425.72
2023-03-31T07:56:31.209Z,98417.56
2023-03-31T07:59:00.633Z,98413.69
2023-03-31T08:01:30.860Z,98409.69
2023-03-31T08:04:01.215Z,98406.09
2023-03-31T08:06:31.026Z,98405.47
2023-03-31T08:09:00.766Z,98397.88
2023-03-31T08:11:30.152Z,98386.22
2023-03-31T08:13:59.429Z,98386.75
2023-03-31T08:16:28.810Z,98388.34
2023-03-31T08:18:58.167Z,98379.53
2023-03-31T08:21:27.252Z,98375.72
2023-03-31T08:23:57.622Z,98364.56
2023-03-31T08:26:27.231Z,98363.75
2023-03-31T08:28:56.994Z,98354.69
2023-03-31T08:31:27.644Z,98356.88
2023-03-31T08:33:57.489Z,98353.84
2023-03-31T08:36:28.225Z,98352.28
2023-03-31T08:38:57.700Z,98349.38
2023-03-31T08:42:02.274Z,98349.53
2023-03-31T08:44:37.630Z,98334.63
2023-03-31T08:47:14.744Z,98330.78
2023-03-31T08:49:54.916Z,98330.94
2023-03-31T08:52:51.781Z,98334.16
2023-03-31T08:55:52.418Z,98314.44
2023-03-31T08:58:44.932Z,98310.81
2023-03-31T09:01:30.446Z,98303.31
2023-03-31T09:04:19.173Z,98304.03
2023-03-31T09:07:09.334Z,98304.25
2023-03-31T09:09:57.405Z,98299.25
2023-03-31T09:13:07.815Z,98299.88
2023-03-31T09:15:44.251Z,98309.88
2023-03-31T09:18:39.533Z,98299.13
2023-03-31T09:21:14.343Z,98307.22
2023-03-31T09:24:04.849Z,98320.97
2023-03-31T09:26:44.635Z,98334.97
2023-03-31T09:29:28.452Z,98329.09
2023-03-31T09:32:08.564Z,98328.59
2023-03-31T09:34:58.960Z,98346.13
2023-03-31T09:37:34.296Z,98349.03
2023-03-31T09:40:11.692Z,98331.47
2023-03-31T09:42:41.413Z,98346.81
2023-03-31T09:45:21.955Z,98340.88
2023-03-31T09:48:01.223Z,98349.06
2023-03-31T09:50:35.286Z,98356.50
2023-03-31T09:53:07.486Z,98353.78
2023-03-31T09:55:46.963Z,98349.69
2023-03-31T09:58:18.452Z,98349.91
2023-03-31T10:01:11.341Z,98345.25
2023-03-31T10:04:10.172Z,98344.84
2023-03-31T10:06:44.564Z,98344.69
2023-03-31T10:09:14.547Z,98333.69
2023-03-31T10:12:13.933Z,98329.22
2023-03-31T10:14:48.183Z,98335.78
2023-03-31T10:17:20.533Z,98326.78
2023-03-31T10:19:53.287Z,98335.31
2023-03-31T10:22:25.836Z,98337.00
2023-03-31T10:24:55.930Z,98337.25
2023-03-31T10:27:29.012Z,98337.41
2023-03-31T10:30:01.520Z,98340.31
2023-03-31T10:32:36.778Z,98356.84
2023-03-31T10:35:14.868Z,98370.44
2023-03-31T10:37:44.949Z,98379.81
2023-03-31T10:40:25.347Z,98369.91
2023-03-31T10:43:22.703Z,98350.41
2023-03-31T10:45:53.866Z,98349.97
2023-03-31T10:48:42.894Z,98372.03
2023-03-31T10:51:32.058Z,98370.13
2023-03-31T10:54:05.456Z,98370.31
2023-03-31T10:56:36.693Z,98365.63
2023-03-31T10:59:35.320Z,98368.09
2023-03-31T11:02:54.336Z,98368.56
2023-03-31T11:05:53.446Z,98370.38
2023-03-31T11:08:38.249Z,98372.97
2023-03-31T11:11:28.809Z,98369.47
2023-03-31T11:14:03.369Z,98370.19
2023-03-31T11:17:00.512Z,98363.44
2023-03-31T11:19:52.329Z,98354.34
2023-03-31T11:22:40.353Z,98360.16
2023-03-31T11:25:23.898Z,98352.69
2023-03-31T11:28:16.217Z,98368.28
2023-03-31T11:31:05.248Z,98371.09
2023-03-31T11:33:38.677Z,98378.97
2023-03-31T11:36:09.948Z,98390.50
2023-03-31T11:38:57.379Z,98402.13
2023-03-31T11:41:48.945Z,98397.88
2023-03-31T11:44:21.340Z,98401.16
2023-03-31T11:47:07.637Z,98416.78
2023-03-31T11:49:45.556Z,98417.41
2023-03-31T11:52:24.583Z,98402.31
2023-03-31T11:55:07.219Z,98398.56
2023-03-31T11:57:58.274Z,98397.88
2023-03-31T12:00:34.142Z,98404.38
2023-03-31T12:03:24.903Z,98404.88
2023-03-31T12:06:08.800Z,98411.03
2023-03-31T12:09:03.154Z,98413.06
2023-03-31T12:12:03.770Z,98399.28
2023-03-31T12:15:02.391Z,98402.03
2023-03-31T12:17:33.923Z,98404.38
2023-03-31T12:20:11.583Z,98406.34
2023-03-31T12:22:48.643Z,98410.00
2023-03-31T12:25:27.598Z,98413.72
2023-03-31T12:28:00.398Z,98417.03
2023-03-31T12:30:40.461Z,98413.25
2023-03-31T12:33:32.686Z,98410.53
2023-03-31T12:36:08.565Z,98406.31
2023-03-31T12:38:53.603Z,98405.56
2023-03-31T12:41:28.887Z,98395.66
2023-03-31T12:44:19.453Z,98395.19
2023-03-31T12:47:03.716Z,98399.50
2023-03-31T12:49:54.684Z,98392.63
2023-03-31T12:52:38.686Z,98397.75
2023-03-31T12:55:26.279Z,98396.19
2023-03-31T12:58:15.596Z,98392.91
2023-03-31T13:01:12.492Z,98392.56
2023-03-31T13:03:47.313Z,98390.91
2023-03-31T13:06:32.280Z,98386.44
2023-03-31T13:09:12.308Z,98389.50
2023-03-31T13:11:49.728Z,98380.53
2023-03-31T13:14:39.664Z,98385.97
2023-03-31T13:17:31.378Z,98390.84
2023-03-31T13:20:29.076Z,98376.84
2023-03-31T13:23:16.609Z,98382.56
2023-03-31T13:25:53.746Z,98386.16
2023-03-31T13:28:23.598Z,98390.63
2023-03-31T13:31:13.871Z,98381.75
2023-03-31T13:34:03.936Z,98384.22
2023-03-31T13:36:37.042Z,98393.31
2023-03-31T13:39:47.947Z,98392.47
2023-03-31T13:42:30.015Z,98393.50
2023-03-31T13:45:28.436Z,98403.19
2023-03-31T13:48:26.910Z,98424.31
2023-03-31T13:51:19.903Z,98426.00
2023-03-31T13:54:14.232Z,98419.22
2023-03-31T15:01:29.669Z,98461.03
2023-03-31T15:04:20.232Z,98460.13
2023-03-31T15:07:00.642Z,98465.66
2023-03-31T15:09:42.871Z,98465.59
2023-03-31T15:12:23.819Z,98467.59
2023-03-31T15:15:18.406Z,98470.44
2023-03-31T15:18:09.396Z,98476.94
2023-03-31T15:20:51.932Z,98476.03
2023-03-31T15:23:34.615Z,98478.97
2023-03-31T15:26:34.525Z,98486.09
2023-03-31T15:29:45.401Z,98487.63
2023-03-31T15:32:42.821Z,98493.59
2023-03-31T15:35:49.105Z,98494.31
2023-03-31T15:38:33.426Z,98497.56
2023-03-31T15:41:28.319Z,98491.72
2023-03-31T15:44:29.901Z,98490.28
2023-03-31T15:47:29.696Z,98485.72
2023-03-31T15:50:21.348Z,98491.97
2023-03-31T15:53:04.066Z,98481.81
2023-03-31T15:55:49.475Z,98479.13
2023-03-31T15:58:51.480Z,98483.75
2023-03-31T16:01:51.221Z,98491.97
2023-03-31T16:04:34.349Z,98494.00
2023-03-31T16:07:21.573Z,98503.53
2023-03-31T16:10:08.258Z,98496.59
2023-03-31T16:13:13.511Z,98510.25
2023-03-31T16:15:51.402Z,98519.03
2023-03-31T16:18:45.878Z,98515.59
2023-03-31T16:21:25.252Z,98519.59
2023-03-31T16:24:01.478Z,98518.94
2023-03-31T16:26:37.024Z,98521.22
2023-03-31T16:29:10.497Z,98519.84
2023-03-31T16:31:47.227Z,98518.94
2023-03-31T16:34:28.399Z,98518.94
2023-03-31T16:37:18.781Z,98520.06
2023-03-31T16:39:57.099Z,98518.53
2023-03-31T16:42:36.605Z,98515.31
2023-03-31T16:45:19.903Z,98530.22
2023-03-31T16:47:54.919Z,98527.56
2023-03-31T16:50:33.994Z,98525.69
2023-03-31T16:53:08.501Z,98523.31
2023-03-31T16:55:47.917Z,98530.97
2023-03-31T16:58:21.403Z,98533.16
2023-03-31T17:00:55.975Z,98527.25
2023-03-31T17:03:36.156Z,98520.97
2023-03-31T17:06:18.576Z,98527.78
2023-03-31T17:09:06.469Z,98528.75
2023-03-31T17:11:44.623Z,98527.16
2023-03-31T17:14:25.506Z,98524.97
2023-03-31T17:17:06.288Z,98526.31
2023-03-31T17:19:41.028Z,98527.25
2023-03-31T17:25:07.166Z,98529.66
2023-03-31T17:27:52.483Z,98527.47
2023-03-31T17:30:29.874Z,98530.56
2023-03-31T17:33:09.076Z,98535.34
2023-03-31T17:35:44.866Z,98535.28
2023-03-31T17:38:27.587Z,98532.50
2023-03-31T17:41:16.434Z,98545.09
2023-03-31T17:43:53.559Z,98540.31
2023-03-31T17:46:32.252Z,98538.41
2023-03-31T17:49:08.237Z,98550.38
2023-03-31T17:51:47.856Z,98541.59
2023-03-31T17:54:22.157Z,98550.44
2023-03-31T17:56:57.323Z,98552.41
2023-03-31T17:59:42.476Z,98549.41
2023-03-31T18:02:23.897Z,98553.72
2023-03-31T18:05:00.275Z,98549.47
2023-03-31T18:07:39.228Z,98556.13
2023-03-31T18:10:14.570Z,98543.03
2023-03-31T18:12:50.783Z,98547.28
2023-03-31T18:15:23.989Z,98560.53
2023-03-31T18:17:57.023Z,98546.94
2023-03-31T18:20:29.767Z,98543.31
2023-03-31T18:23:01.432Z,98542.66
2023-03-31T18:25:31.457Z,98547.63
2023-03-31T18:28:02.849Z,98548.16
2023-03-31T18:30:33.765Z,98549.47
2023-03-31T18:33:05.309Z,98548.75
2023-03-31T18:35:38.171Z,98544.13
2023-03-31T18:38:09.433Z,98548.16
2023-03-31T18:40:40.243Z,98541.66
2023-03-31T18:43:13.352Z,98543.47
2023-03-31T18:45:43.856Z,98539.00
2023-03-31T18:48:14.595Z,98544.84
2023-03-31T18:50:46.311Z,98536.22
2023-03-31T18:53:16.933Z,98531.91
2023-03-31T18:55:55.676Z,98538.50
2023-03-31T18:58:33.436Z,98528.94
2023-03-31T19:01:05.559Z,98539.78
2023-03-31T19:03:36.783Z,98548.31
2023-03-31T19:06:13.001Z,98535.00
2023-03-31T19:08:43.613Z,98536.25
2023-03-31T19:11:16.807Z,98540.78
2023-03-31T19:13:47.777Z,98539.97
2023-03-31T19:16:20.485Z,98537.63
2023-03-31T19:18:51.379Z,98540.03
2023-03-31T19:21:22.748Z,98538.66
2023-03-31T19:23:52.865Z,98537.44
2023-03-31T19:26:26.217Z,98530.06
2023-03-31T19:28:58.160Z,98538.59
2023-03-31T19:31:29.957Z,98530.31
2023-03-31T19:34:00.704Z,98528.75
2023-03-31T19:36:31.007Z,98526.56
2023-03-31T19:39:02.326Z,98524.44
2023-03-31T19:41:31.942Z,98526.22
2023-03-31T19:44:02.027Z,98521.94
2023-03-31T19:46:32.598Z,98517.78
2023-03-31T19:49:03.270Z,98513.78
2023-03-31T19:51:34.134Z,98516.03
2023-03-31T19:54:04.309Z,98524.00
2023-03-31T19:56:34.741Z,98519.00
2023-03-31T19:59:04.515Z,98521.44
2023-03-31T20:01:34.537Z,98516.03
2023-03-31T20:04:04.883Z,98508.13
2023-03-31T20:06:37.267Z,98513.72
2023-03-31T20:09:07.838Z,98515.41
2023-03-31T20:11:37.443Z,98515.53
2023-03-31T20:14:07.250Z,98512.19
2023-03-31T20:16:37.592Z,98504.78
2023-03-31T20:19:08.534Z,98513.94
2023-03-31T20:21:40.133Z,98500.53
2023-03-31T20:24:13.329Z,98503.16
2023-03-31T20:26:42.628Z,98503.44
2023-03-31T20:29:12.843Z,98497.41
2023-03-31T20:31:43.083Z,98507.75
2023-03-31T20:34:16.432Z,98491.91
2023-03-31T20:36:47.197Z,98489.56
2023-03-31T20:39:17.500Z,98491.41
2023-03-31T20:41:47.880Z,98485.97
2023-03-31T20:44:17.945Z,98477.53
2023-03-31T20:46:48.097Z,98487.81
2023-03-31T20:49:17.744Z,98479.06
2023-03-31T20:51:48.509Z,98478.03
2023-03-31T20:54:18.202Z,98477.22
2023-03-31T20:56:48.382Z,98473.81
2023-03-31T20:59:18.010Z,98475.34
2023-03-31T21:01:50.702Z,98470.25
2023-03-31T21:04:20.061Z,98466.00
2023-03-31T21:06:49.731Z,98466.41
2023-03-31T21:09:19.833Z,98462.06
2023-03-31T21:11:48.996Z,98463.19
2023-03-31T21:14:19.162Z,98460.81
2023-03-31T21:16:48.648Z,98464.94
2023-03-31T21:19:18.041Z,98466.75
2023-03-31T21:21:47.940Z,98464.78
2023-03-31T21:24:17.419Z,98466.41
2023-03-31T21:26:47.007Z,98466.22
2023-03-31T21:29:16.515Z,98474.03
2023-03-31T21:31:48.324Z,98463.84
2023-03-31T21:34:17.799Z,98458.16
2023-03-31T21:36:47.395Z,98464.84
2023-03-31T21:39:16.904Z,98453.75
2023-03-31T21:41:46.088Z,98459.59
2023-03-31T21:44:16.090Z,98454.09
2023-03-31T21:46:46.195Z,98456.03
2023-03-31T21:49:16.722Z,98453.63
2023-03-31T21:51:46.672Z,98452.81
2023-03-31T21:54:15.960Z,98447.66
2023-03-31T21:56:45.876Z,98440.47
2023-03-31T21:59:15.325Z,98440.22
2023-03-31T22:01:45.363Z,98444.56
2023-03-31T22:04:14.607Z,98436.84
2023-03-31T22:06:43.754Z,98432.00
2023-03-31T22:09:13.283Z,98434.09
2023-03-31T22:11:42.538Z,98429.66
2023-03-31T22:14:12.408Z,98426.38
2023-03-31T22:16:41.512Z,98424.78
2023-03-31T22:19:14.577Z,98409.59
2023-03-31T22:21:44.736Z,98421.47
2023-03-31T22:24:14.705Z,98412.22
2023-03-31T22:26:44.301Z,98417.56
2023-03-31T22:29:16.928Z,98417.72
2023-03-31T22:31:47.208Z,98415.84
2023-03-31T22:34:17.300Z,98409.38
2023-03-31T22:36:48.189Z,98418.38
2023-03-31T22:39:18.012Z,98415.44
2023-03-31T22:41:47.466Z,98422.91
2023-03-31T22:44:16.748Z,98423.38
2023-03-31T22:46:51.150Z,98418.47
2023-03-31T22:49:20.919Z,98419.25
2023-03-31T22:51:50.115Z,98416.50
2023-03-31T22:54:19.470Z,98414.97
2023-03-31T22:56:48.789Z,98411.56
2023-03-31T22:59:18.641Z,98419.03
2023-03-31T23:01:54.346Z,98422.88
2023-03-31T23:04:24.257Z,98429.56
2023-03-31T23:06:54.112Z,98424.38
2023-03-31T23:09:25.066Z,98434.59
2023-03-31T23:11:54.860Z,98424.38
2023-03-31T23:14:24.894Z,98423.31
2023-03-31T23:16:54.232Z,98430.03
2023-03-31T23:19:23.915Z,98427.13
2023-03-31T23:21:53.618Z,98425.66
2023-03-31T23:24:24.335Z,98424.31
2023-03-31T23:26:54.209Z,98432.72
2023-03-31T23:29:23.678Z,98431.56
2023-03-31T23:31:53.137Z,98436.59
2023-03-31T23:34:22.527Z,98438.47
2023-03-31T23:36:53.938Z,98445.13
2023-03-31T23:39:24.029Z,98451.72
2023-03-31T23:41:53.344Z,98455.75
2023-03-31T23:44:22.801Z,98452.25
2023-03-31T23:46:52.306Z,98451.28
2023-03-31T23:49:22.719Z,98456.47
2023-03-31T23:51:52.893Z,98460.78
2023-03-31T23:54:22.825Z,98468.41
2023-03-31T23:56:52.403Z,98467.47
2023-03-31T23:59:21.928Z,98463.00
